Time;durP1;ratioP1;P1;durP2;ratioP2;P2;SDS_P1;SDS_P2;PMS_P1;PMS_P2;Temp;Humidity;BMP_temperature;BMP_pressure;BME280_temperature;BME280_humidity;BME280_pressure;Samples;Min_cycle;Max_cycle;Signal;HPM_P1;HPM_P2
2023/11/15 00:01:06;;;;;;;1.38;0.98;;;9.80;97.70;;;;;;6178361;23;20092;-76
2023/11/15 00:03:34;;;;;;;1.67;0.60;;;9.70;99.90;;;;;;6202847;23;20054;-76
2023/11/15 00:06:01;;;;;;;1.40;0.50;;;9.70;99.90;;;;;;6226800;23;20024;-75
2023/11/15 00:08:28;;;;;;;1.48;0.52;;;9.80;99.90;;;;;;6227457;23;20055;-75
2023/11/15 00:10:57;;;;;;;2.15;0.70;;;9.70;99.90;;;;;;6228078;23;20026;-76
2023/11/15 00:13:24;;;;;;;1.05;0.50;;;9.70;99.90;;;;;;6228376;23;20024;-76
2023/11/15 00:15:51;;;;;;;1.55;0.63;;;9.80;99.90;;;;;;6229134;23;20470;-76
2023/11/15 00:18:18;;;;;;;1.92;0.70;;;9.80;99.90;;;;;;6228197;23;20028;-76
2023/11/15 00:20:45;;;;;;;3.92;0.98;;;9.80;99.90;;;;;;6176809;23;20446;-76
2023/11/15 00:23:13;;;;;;;1.42;0.60;;;9.80;99.90;;;;;;6228617;23;20020;-76
2023/11/15 00:25:40;;;;;;;1.85;0.65;;;9.80;99.90;;;;;;6202056;23;20393;-76
2023/11/15 00:28:08;;;;;;;1.80;0.63;;;9.80;99.90;;;;;;6225400;23;20509;-76
2023/11/15 00:30:35;;;;;;;1.98;0.82;;;9.80;99.90;;;;;;6201640;23;20024;-76
2023/11/15 00:33:02;;;;;;;0.98;0.57;;;9.80;99.90;;;;;;6202382;23;20035;-76
2023/11/15 00:35:29;;;;;;;1.10;0.50;;;9.80;99.90;;;;;;6227563;23;20040;-76
2023/11/15 00:37:56;;;;;;;2.22;0.68;;;9.70;99.90;;;;;;6202364;23;20020;-76
2023/11/15 00:40:22;;;;;;;2.88;0.90;;;9.80;99.90;;;;;;6202356;23;20050;-75
2023/11/15 00:42:50;;;;;;;2.95;1.15;;;9.80;99.90;;;;;;6203478;23;20124;-75
2023/11/15 00:45:17;;;;;;;1.50;1.02;;;9.80;1.00;;;;;;6228199;23;20079;-75
2023/11/15 00:47:44;;;;;;;1.52;0.50;;;9.80;1.00;;;;;;6205276;23;20085;-76
2023/11/15 00:50:11;;;;;;;1.70;0.77;;;9.80;1.00;;;;;;6228305;23;20042;-75
2023/11/15 00:52:38;;;;;;;1.58;0.73;;;9.70;1.00;;;;;;6203892;23;20078;-75
2023/11/15 00:55:06;;;;;;;1.33;0.63;;;9.70;1.00;;;;;;6204376;23;20085;-76
2023/11/15 00:57:33;;;;;;;2.05;0.80;;;9.70;1.00;;;;;;6205585;23;20102;-75
2023/11/15 01:00:00;;;;;;;2.47;0.65;;;9.70;1.00;;;;;;6204449;23;20028;-75
2023/11/15 01:02:29;;;;;;;1.65;0.63;;;9.70;1.00;;;;;;6204525;23;20024;-76
2023/11/15 01:04:57;;;;;;;1.13;0.63;;;9.70;1.00;;;;;;6202586;23;20090;-76
2023/11/15 01:07:24;;;;;;;3.63;0.60;;;9.70;1.00;;;;;;6181909;23;20395;-76
2023/11/15 01:09:51;;;;;;;1.83;0.80;;;9.60;1.00;;;;;;6233103;23;20024;-75
2023/11/15 01:12:18;;;;;;;2.08;0.73;;;9.60;10.50;;;;;;6208769;23;20020;-75
2023/11/15 01:14:45;;;;;;;2.15;0.50;;;9.60;1.00;;;;;;6208484;23;20466;-75
2023/11/15 01:17:12;;;;;;;3.92;0.90;;;9.60;1.00;;;;;;6208173;23;20323;-74
2023/11/15 01:19:39;;;;;;;4.57;0.60;;;9.60;52.60;;;;;;6232770;23;20024;-75
2023/11/15 01:22:06;;;;;;;1.85;0.75;;;9.60;4.00;;;;;;6233050;23;20020;-76
2023/11/15 01:24:33;;;;;;;2.40;0.80;;;9.60;99.90;;;;;;6234446;23;20028;-75
2023/11/15 01:27:00;;;;;;;1.70;0.70;;;9.60;99.90;;;;;;6207683;23;20024;-75
2023/11/15 01:29:27;;;;;;;1.88;0.75;;;9.60;99.90;;;;;;6208306;23;20027;-75
2023/11/15 01:31:55;;;;;;;3.40;1.00;;;9.60;99.90;;;;;;6233744;23;20481;-76
2023/11/15 01:34:22;;;;;;;3.55;1.23;;;9.60;99.90;;;;;;6234435;23;20277;-75
2023/11/15 01:36:49;;;;;;;1.65;0.80;;;9.60;1.00;;;;;;6231787;23;20410;-76
2023/11/15 01:39:16;;;;;;;1.60;0.63;;;9.60;99.90;;;;;;6207678;23;20078;-75
2023/11/15 01:41:49;;;;;;;1.17;0.57;;;9.60;99.90;;;;;;6208551;23;20024;-75
2023/11/15 01:44:17;;;;;;;;;;;9.60;99.90;;;;;;6236099;23;20031;-75
2023/11/15 01:46:46;;;;;;;1.23;0.50;;;9.60;99.90;;;;;;6208163;23;20058;-75
2023/11/15 01:49:14;;;;;;;2.38;0.68;;;9.60;99.90;;;;;;6233524;23;20086;-76
2023/11/15 01:51:40;;;;;;;1.90;0.65;;;9.60;99.90;;;;;;6232021;23;20086;-75
2023/11/15 01:54:07;;;;;;;1.98;0.77;;;9.60;99.90;;;;;;6207620;23;20164;-75
2023/11/15 01:56:34;;;;;;;1.88;0.77;;;9.60;99.90;;;;;;6233878;23;20024;-75
2023/11/15 01:59:01;;;;;;;3.97;1.08;;;9.60;99.90;;;;;;6183389;23;20046;-75
2023/11/15 02:01:29;;;;;;;2.33;0.68;;;9.70;7.00;;;;;;6232633;23;20490;-75
2023/11/15 02:03:56;;;;;;;2.80;0.73;;;9.60;1.00;;;;;;6207956;23;20095;-75
2023/11/15 02:06:27;;;;;;;2.58;1.02;;;9.70;1.00;;;;;;6231240;23;20092;-75
2023/11/15 02:08:53;;;;;;;2.10;0.70;;;9.70;1.00;;;;;;6207342;23;20094;-75
2023/11/15 02:11:20;;;;;;;1.95;0.63;;;9.70;99.90;;;;;;6207757;23;20039;-75
2023/11/15 02:13:47;;;;;;;2.00;0.80;;;9.70;99.90;;;;;;6235001;23;20030;-75
2023/11/15 02:16:14;;;;;;;1.85;0.73;;;9.70;1.00;;;;;;6234203;23;20020;-75
2023/11/15 02:18:41;;;;;;;2.15;0.80;;;9.70;99.90;;;;;;6182645;23;20034;-75
2023/11/15 02:21:09;;;;;;;2.20;0.45;;;9.70;99.90;;;;;;6231287;23;20094;-75
2023/11/15 02:23:45;;;;;;;1.45;0.70;;;9.70;99.90;;;;;;6231816;23;20031;-76
2023/11/15 02:26:12;;;;;;;1.88;0.60;;;9.70;99.90;;;;;;6208287;23;20078;-75
2023/11/15 02:28:39;;;;;;;1.85;0.65;;;9.70;86.20;;;;;;6207820;23;20316;-75
2023/11/15 02:31:06;;;;;;;2.22;0.77;;;9.60;1.00;;;;;;6208384;23;20064;-76
2023/11/15 02:33:33;;;;;;;2.35;0.60;;;9.70;1.00;;;;;;6210826;23;20032;-76
2023/11/15 02:36:00;;;;;;;1.48;0.93;;;9.70;99.90;;;;;;6207317;23;20486;-75
2023/11/15 02:38:27;;;;;;;2.63;1.00;;;9.60;66.30;;;;;;6235795;23;20020;-75
2023/11/15 02:40:54;;;;;;;1.35;0.60;;;9.60;1.00;;;;;;6212540;23;20098;-75
2023/11/15 02:43:21;;;;;;;2.42;1.45;;;9.60;99.90;;;;;;6239185;23;20097;-76
2023/11/15 02:45:47;;;;;;;4.57;0.60;;;9.60;99.90;;;;;;6236043;23;20024;-75
2023/11/15 02:48:14;;;;;;;2.90;0.98;;;9.60;99.90;;;;;;6210284;23;20024;-75
2023/11/15 02:50:41;;;;;;;1.73;0.55;;;9.60;99.90;;;;;;6235937;23;20017;-75
2023/11/15 02:53:08;;;;;;;3.47;0.82;;;9.60;99.90;;;;;;6234446;23;20024;-76
2023/11/15 02:55:35;;;;;;;1.77;0.68;;;9.60;69.60;;;;;;6237195;23;20020;-74
2023/11/15 02:58:03;;;;;;;1.85;0.65;;;9.60;1.00;;;;;;6237235;23;20027;-75
2023/11/15 03:00:30;;;;;;;2.50;0.70;;;9.60;99.90;;;;;;6235062;23;20039;-75
2023/11/15 03:02:58;;;;;;;1.90;0.60;;;9.60;99.90;;;;;;6237259;23;20020;-75
2023/11/15 03:05:25;;;;;;;1.88;0.77;;;9.60;99.90;;;;;;6234366;23;20028;-75
2023/11/15 03:07:54;;;;;;;1.67;0.73;;;9.60;99.90;;;;;;6236931;23;20028;-75
2023/11/15 03:10:21;;;;;;;2.63;0.88;;;9.60;99.90;;;;;;6236671;23;20087;-75
2023/11/15 03:12:48;;;;;;;2.13;0.75;;;9.60;99.90;;;;;;6235679;23;20021;-75
2023/11/15 03:15:15;;;;;;;2.65;0.85;;;9.60;31.20;;;;;;6210228;23;20508;-75
2023/11/15 03:17:42;;;;;;;2.83;0.70;;;9.60;52.80;;;;;;6210405;23;20493;-75
2023/11/15 03:20:10;;;;;;;2.92;0.80;;;9.60;72.80;;;;;;6233721;23;20027;-75
2023/11/15 03:22:37;;;;;;;0.80;0.40;;;9.60;35.80;;;;;;6236798;23;20307;-75
2023/11/15 03:25:04;;;;;;;0.73;0.45;;;9.50;99.60;;;;;;6234945;23;20024;-75
2023/11/15 03:27:31;;;;;;;0.95;0.47;;;9.50;99.90;;;;;;6210111;23;20023;-75
2023/11/15 03:29:57;;;;;;;1.58;0.60;;;9.50;99.90;;;;;;6235431;23;20092;-75
2023/11/15 03:32:24;;;;;;;1.48;0.52;;;9.50;99.90;;;;;;6236768;23;20031;-75
2023/11/15 03:34:52;;;;;;;1.77;0.60;;;9.50;99.90;;;;;;6233941;23;20031;-75
2023/11/15 03:37:18;;;;;;;1.73;0.63;;;9.50;99.90;;;;;;6237063;23;20043;-75
2023/11/15 03:39:47;;;;;;;1.20;0.57;;;9.50;99.90;;;;;;6209130;23;20032;-75
2023/11/15 03:42:14;;;;;;;0.77;0.40;;;9.50;99.90;;;;;;6236719;23;20020;-75
2023/11/15 03:44:41;;;;;;;1.42;0.50;;;9.50;99.90;;;;;;6209644;23;20090;-75
2023/11/15 03:47:11;;;;;;;0.82;0.43;;;9.40;1.00;;;;;;6235091;23;20024;-75
2023/11/15 03:49:37;;;;;;;1.95;0.70;;;9.40;52.00;;;;;;6208581;23;20024;-75
2023/11/15 03:52:06;;;;;;;1.40;0.60;;;9.50;99.90;;;;;;6236109;23;20020;-75
2023/11/15 03:54:33;;;;;;;1.52;0.68;;;9.40;99.90;;;;;;6234019;23;20082;-75
2023/11/15 03:57:02;;;;;;;2.00;1.10;;;9.50;99.90;;;;;;6235042;23;20020;-75
2023/11/15 03:59:29;;;;;;;1.80;0.65;;;9.50;99.90;;;;;;6210130;23;20225;-75
2023/11/15 04:01:56;;;;;;;1.05;0.57;;;9.50;99.90;;;;;;6236633;23;20046;-75
2023/11/15 04:04:24;;;;;;;1.38;0.50;;;9.50;99.90;;;;;;6234678;23;20024;-75
2023/11/15 04:06:52;;;;;;;3.33;0.68;;;9.50;99.90;;;;;;6184321;23;20371;-75
2023/11/15 04:09:18;;;;;;;3.40;0.82;;;9.50;99.90;;;;;;6236756;23;20059;-75
2023/11/15 04:11:45;;;;;;;2.75;0.82;;;9.40;1.00;;;;;;6236908;23;20020;-75
2023/11/15 04:14:12;;;;;;;1.65;0.73;;;9.50;1.00;;;;;;6209714;23;20024;-75
2023/11/15 04:16:39;;;;;;;2.95;0.82;;;9.50;1.00;;;;;;6184816;23;20090;-75
2023/11/15 04:19:06;;;;;;;1.17;0.52;;;9.50;99.90;;;;;;6236358;23;20020;-75
2023/11/15 04:21:33;;;;;;;1.88;1.00;;;9.50;99.90;;;;;;6235704;23;20106;-74
2023/11/15 04:24:00;;;;;;;1.83;0.85;;;9.50;99.90;;;;;;6236878;23;20028;-75
2023/11/15 04:26:27;;;;;;;3.30;0.75;;;9.50;99.90;;;;;;6211453;23;20024;-75
2023/11/15 04:28:54;;;;;;;2.55;0.65;;;9.50;99.90;;;;;;6239069;23;20095;-75
2023/11/15 04:31:21;;;;;;;2.83;0.60;;;9.50;99.90;;;;;;6186859;23;20024;-75
2023/11/15 04:33:48;;;;;;;1.05;0.60;;;9.40;99.90;;;;;;6186991;23;20030;-75
2023/11/15 04:36:15;;;;;;;1.08;0.60;;;9.40;99.90;;;;;;6210098;23;20247;-75
2023/11/15 04:38:43;;;;;;;1.55;0.70;;;9.40;99.90;;;;;;6236810;23;20023;-75
2023/11/15 04:41:11;;;;;;;3.88;0.80;;;9.40;99.90;;;;;;6212014;23;20087;-75
2023/11/15 04:43:39;;;;;;;2.50;0.70;;;9.40;45.60;;;;;;6237483;23;20095;-75
2023/11/15 04:46:06;;;;;;;3.22;1.20;;;9.30;99.90;;;;;;6238122;23;20028;-75
2023/11/15 04:48:33;;;;;;;2.05;0.73;;;9.30;1.00;;;;;;6236996;23;20024;-76
2023/11/15 04:51:00;;;;;;;1.63;0.50;;;9.30;1.00;;;;;;6237094;23;20477;-75
2023/11/15 04:53:27;;;;;;;1.75;1.23;;;9.30;1.00;;;;;;6211416;23;20020;-75
2023/11/15 04:55:54;;;;;;;1.77;0.73;;;9.30;1.00;;;;;;6237963;23;20103;-75
2023/11/15 04:58:22;;;;;;;1.05;0.55;;;9.30;1.00;;;;;;6211428;23;20031;-75
2023/11/15 05:00:48;;;;;;;1.65;0.82;;;9.30;99.90;;;;;;6238029;23;20047;-75
2023/11/15 05:03:15;;;;;;;2.95;0.77;;;9.30;99.90;;;;;;6238421;23;20430;-75
2023/11/15 05:05:42;;;;;;;5.53;1.25;;;9.20;99.90;;;;;;6237037;23;20024;-75
2023/11/15 05:08:09;;;;;;;1.70;0.70;;;9.20;99.90;;;;;;6236055;23;20020;-75
2023/11/15 05:10:36;;;;;;;2.92;0.77;;;9.20;99.90;;;;;;6236303;23;20156;-75
2023/11/15 05:13:06;;;;;;;1.80;0.52;;;9.20;99.90;;;;;;6211451;23;20024;-75
2023/11/15 05:15:33;;;;;;;0.82;0.50;;;9.20;99.90;;;;;;6211474;23;20548;-75
2023/11/15 05:18:00;;;;;;;1.05;0.52;;;9.20;99.90;;;;;;6186206;23;20016;-75
2023/11/15 05:20:27;;;;;;;1.88;0.70;;;9.10;99.90;;;;;;6235167;23;20095;-75
2023/11/15 05:22:55;;;;;;;2.03;0.70;;;9.20;85.90;;;;;;6237456;23;20060;-75
2023/11/15 05:25:22;;;;;;;1.30;0.40;;;9.20;99.90;;;;;;6237422;23;20020;-75
2023/11/15 05:27:50;;;;;;;1.15;0.57;;;9.10;99.90;;;;;;6211074;23;20349;-75
2023/11/15 05:30:17;;;;;;;3.45;0.88;;;9.10;93.60;;;;;;6236024;23;20111;-75
2023/11/15 05:32:44;;;;;;;2.53;1.00;;;9.10;99.90;;;;;;6235657;23;20576;-75
2023/11/15 05:35:11;;;;;;;1.88;0.68;;;9.10;99.90;;;;;;6209827;23;20028;-75
2023/11/15 05:37:38;;;;;;;3.90;1.27;;;9.10;99.90;;;;;;6210871;23;20024;-75
2023/11/15 05:40:06;;;;;;;3.25;0.90;;;9.10;99.90;;;;;;6210713;23;20044;-76
2023/11/15 05:42:33;;;;;;;2.03;0.60;;;9.10;99.90;;;;;;6211103;23;20028;-76
2023/11/15 05:45:00;;;;;;;2.00;0.70;;;9.00;99.90;;;;;;6186104;23;20098;-75
2023/11/15 05:47:28;;;;;;;1.25;0.40;;;9.00;99.90;;;;;;6236585;23;20025;-75
2023/11/15 05:49:55;;;;;;;1.15;0.50;;;9.10;99.90;;;;;;6207236;23;20017;-75
2023/11/15 05:52:22;;;;;;;1.48;0.80;;;9.10;99.90;;;;;;6208537;23;20082;-75
2023/11/15 05:54:49;;;;;;;1.15;0.43;;;9.10;41.20;;;;;;6208632;23;20477;-75
2023/11/15 05:57:16;;;;;;;0.85;0.30;;;9.10;1.00;;;;;;6208637;23;20032;-75
2023/11/15 05:59:43;;;;;;;1.23;0.32;;;9.10;21.70;;;;;;6233887;23;20020;-75
2023/11/15 06:02:11;;;;;;;0.82;0.40;;;9.00;75.30;;;;;;6232365;23;20027;-77
2023/11/15 06:04:38;;;;;;;1.55;0.80;;;9.00;99.90;;;;;;6229601;23;20020;-75
2023/11/15 06:07:05;;;;;;;0.95;0.50;;;9.00;99.90;;;;;;6229233;23;20031;-76
2023/11/15 06:09:32;;;;;;;1.55;0.70;;;9.00;99.90;;;;;;6230013;23;20020;-75
2023/11/15 06:11:59;;;;;;;1.00;0.40;;;9.00;99.90;;;;;;6229429;23;20028;-75
2023/11/15 06:14:26;;;;;;;1.92;0.82;;;9.00;99.90;;;;;;6233845;23;20450;-76
2023/11/15 06:16:53;;;;;;;0.40;0.40;;;9.00;99.90;;;;;;6207143;23;20099;-76
2023/11/15 06:19:21;;;;;;;0.85;0.50;;;9.00;99.90;;;;;;6206791;23;20024;-75
2023/11/15 06:21:48;;;;;;;0.82;0.35;;;9.00;1.00;;;;;;6229982;23;20181;-75
2023/11/15 06:24:14;;;;;;;3.33;0.80;;;9.00;1.00;;;;;;6227727;23;20150;-75
2023/11/15 06:26:44;;;;;;;1.52;0.60;;;9.00;99.90;;;;;;6202665;23;20226;-76
2023/11/15 06:29:11;;;;;;;1.42;0.80;;;9.00;99.90;;;;;;6203806;23;20020;-75
2023/11/15 06:31:38;;;;;;;1.00;0.50;;;9.00;41.80;;;;;;6205230;23;20024;-75
2023/11/15 06:34:05;;;;;;;1.60;0.50;;;9.00;1.00;;;;;;6203174;23;20024;-76
2023/11/15 06:36:36;;;;;;;1.00;0.35;;;9.00;1.00;;;;;;6229759;23;20447;-75
2023/11/15 06:39:05;;;;;;;2.80;1.02;;;9.00;1.00;;;;;;6206161;23;20046;-75
2023/11/15 06:41:34;;;;;;;3.15;1.05;;;9.00;1.00;;;;;;6182757;23;20039;-73
2023/11/15 06:44:03;;;;;;;1.23;0.80;;;9.00;99.90;;;;;;6231729;23;20046;-75
2023/11/15 06:46:30;;;;;;;2.53;0.80;;;9.00;99.90;;;;;;6204756;23;20031;-75
2023/11/15 06:48:57;;;;;;;1.45;0.52;;;9.00;99.90;;;;;;6227537;23;20024;-76
2023/11/15 06:51:24;;;;;;;3.88;0.82;;;9.00;99.90;;;;;;6203029;23;20359;-76
2023/11/15 06:53:53;;;;;;;1.30;0.57;;;9.00;99.90;;;;;;6229679;23;20023;-76
2023/11/15 06:56:20;;;;;;;0.73;0.50;;;9.00;99.90;;;;;;6225678;23;20123;-75
2023/11/15 06:58:46;;;;;;;0.80;0.30;;;9.00;99.90;;;;;;6220696;23;20024;-75
2023/11/15 07:01:13;;;;;;;0.57;0.40;;;9.00;99.90;;;;;;6225697;23;20086;-75
2023/11/15 07:03:43;;;;;;;1.42;0.40;;;9.00;99.90;;;;;;6227214;23;20068;-75
2023/11/15 07:06:10;;;;;;;1.50;0.40;;;9.00;99.90;;;;;;6174162;23;20180;-74
2023/11/15 07:08:37;;;;;;;1.00;0.40;;;8.90;99.90;;;;;;6225176;23;20024;-75
2023/11/15 07:11:05;;;;;;;1.10;0.55;;;8.90;1.00;;;;;;6224354;23;20284;-75
2023/11/15 07:13:32;;;;;;;1.13;0.68;;;8.90;1.00;;;;;;6198878;23;20024;-75
2023/11/15 07:16:01;;;;;;;1.23;0.45;;;8.90;1.00;;;;;;6224047;23;20027;-75
2023/11/15 07:18:29;;;;;;;0.40;0.25;;;8.90;1.00;;;;;;6197943;23;20499;-75
2023/11/15 07:20:56;;;;;;;1.60;0.70;;;8.90;1.00;;;;;;6196945;23;20394;-74
2023/11/15 07:23:23;;;;;;;0.65;0.40;;;8.90;99.90;;;;;;6172327;23;20122;-75
2023/11/15 07:25:50;;;;;;;1.60;0.63;;;8.90;99.90;;;;;;6198971;23;20024;-75
2023/11/15 07:28:19;;;;;;;1.17;0.52;;;8.90;99.90;;;;;;6225420;23;20036;-74
2023/11/15 07:30:46;;;;;;;1.48;0.65;;;9.00;99.90;;;;;;6174797;23;20038;-75
2023/11/15 07:33:14;;;;;;;3.38;0.63;;;9.00;99.90;;;;;;6168561;23;20430;-75
2023/11/15 07:35:41;;;;;;;1.63;0.55;;;9.00;99.90;;;;;;6166671;23;20079;-76
2023/11/15 07:38:08;;;;;;;1.20;0.50;;;9.00;92.70;;;;;;6190960;23;20044;-75
2023/11/15 07:40:37;;;;;;;2.33;0.65;;;9.00;15.70;;;;;;6166956;23;20031;-76
2023/11/15 07:43:05;;;;;;;1.15;0.60;;;9.00;1.00;;;;;;6143966;23;20021;-75
2023/11/15 07:45:35;;;;;;;1.27;0.55;;;9.00;1.00;;;;;;6168822;23;20028;-76
2023/11/15 07:48:04;;;;;;;1.33;0.52;;;9.10;1.00;;;;;;6141530;23;20127;-77
2023/11/15 07:50:32;;;;;;;1.17;0.50;;;9.10;1.00;;;;;;6118657;23;20052;-71
2023/11/15 07:52:59;;;;;;;2.95;0.60;;;9.10;1.00;;;;;;6142776;23;20044;-70
2023/11/15 07:55:26;;;;;;;1.90;0.90;;;9.10;1.00;;;;;;6144101;23;20047;-71
2023/11/15 07:57:53;;;;;;;3.55;0.93;;;9.10;1.00;;;;;;6168239;23;20021;-70
2023/11/15 08:00:23;;;;;;;2.53;0.90;;;9.20;1.00;;;;;;6142272;23;20028;-71
2023/11/15 08:02:54;;;;;;;3.67;0.77;;;9.20;1.00;;;;;;6170337;23;20116;-71
2023/11/15 08:05:22;;;;;;;2.33;0.82;;;9.20;1.00;;;;;;6143599;23;20070;-70
2023/11/15 08:07:49;;;;;;;1.58;0.75;;;9.30;1.00;;;;;;6168909;23;20025;-70
2023/11/15 08:10:16;;;;;;;1.40;0.80;;;9.30;99.90;;;;;;6194727;23;20079;-71
2023/11/15 08:12:44;;;;;;;4.45;1.15;;;9.40;95.00;;;;;;6169194;23;20110;-70
2023/11/15 08:15:17;;;;;;;2.17;0.90;;;9.40;1.00;;;;;;6196001;23;20598;-71
2023/11/15 08:17:46;;;;;;;3.70;0.73;;;9.40;1.00;;;;;;6122422;23;20390;-70
2023/11/15 08:20:16;;;;;;;2.55;0.80;;;9.40;1.00;;;;;;6167669;23;20028;-69
2023/11/15 08:22:44;;;;;;;1.52;0.95;;;9.40;99.90;;;;;;6169063;23;20048;-70
2023/11/15 08:25:12;;;;;;;2.78;1.13;;;9.40;99.90;;;;;;6117614;23;20090;-79
2023/11/15 08:27:40;;;;;;;1.92;0.77;;;9.50;99.90;;;;;;6195670;23;20025;-79
2023/11/15 08:30:11;;;;;;;2.38;1.17;;;9.50;99.90;;;;;;6118846;23;20028;-80
2023/11/15 08:32:41;;;;;;;2.70;0.80;;;9.50;99.90;;;;;;6139171;23;20028;-79
2023/11/15 08:35:11;;;;;;;3.40;0.90;;;9.50;99.90;;;;;;6166440;23;20037;-79
2023/11/15 08:37:38;;;;;;;2.30;0.80;;;9.50;99.90;;;;;;6168151;23;20304;-78
2023/11/15 08:40:10;;;;;;;2.95;0.93;;;9.50;99.90;;;;;;6167635;23;20024;-79
2023/11/15 08:42:54;;;;;;;2.45;0.70;;;9.50;81.90;;;;;;6173410;23;20050;-79
2023/11/15 08:45:21;;;;;;;2.67;0.95;;;9.60;90.20;;;;;;6144866;23;20047;-80
2023/11/15 08:47:48;;;;;;;2.88;0.98;;;9.60;23.40;;;;;;6144188;23;20024;-79
2023/11/15 08:50:15;;;;;;;3.15;0.90;;;9.60;22.50;;;;;;6169326;23;20260;-80
2023/11/15 08:52:42;;;;;;;2.85;0.77;;;9.60;1.00;;;;;;6195415;23;20430;-81
2023/11/15 08:55:11;;;;;;;4.00;1.15;;;9.60;1.00;;;;;;6146042;23;20517;-79
2023/11/15 08:57:38;;;;;;;2.13;0.73;;;9.60;1.00;;;;;;6171385;23;20025;-79
2023/11/15 09:00:12;;;;;;;2.38;0.88;;;9.70;1.00;;;;;;6194287;23;20123;-80
2023/11/15 09:02:42;;;;;;;5.65;1.58;;;9.70;1.00;;;;;;6171407;23;20327;-80
2023/11/15 09:05:13;;;;;;;4.05;1.13;;;9.70;99.90;;;;;;6192172;23;20635;-80
2023/11/15 09:07:41;;;;;;;3.20;0.70;;;9.80;99.90;;;;;;6171763;23;20024;-80
2023/11/15 09:10:08;;;;;;;3.22;0.68;;;9.80;99.90;;;;;;6148920;23;20028;-81
2023/11/15 09:12:36;;;;;;;2.38;1.05;;;9.80;99.90;;;;;;6173080;23;20096;-80
2023/11/15 09:15:11;;;;;;;2.33;0.70;;;9.80;99.90;;;;;;6149616;23;20386;-80
2023/11/15 09:17:50;;;;;;;3.35;0.80;;;9.80;99.90;;;;;;6196056;23;20475;-81
2023/11/15 09:20:21;;;;;;;1.85;1.05;;;9.90;99.90;;;;;;6196357;23;20028;-80
2023/11/15 09:22:53;;;;;;;2.25;0.80;;;9.90;99.90;;;;;;6172467;23;20062;-81
2023/11/15 09:25:26;;;;;;;2.70;0.90;;;9.90;99.90;;;;;;6170830;23;20371;-80
2023/11/15 09:27:54;;;;;;;2.50;1.10;;;10.00;99.90;;;;;;6172548;23;20020;-80
2023/11/15 09:30:21;;;;;;;3.30;1.35;;;10.00;99.90;;;;;;6147691;23;20033;-81
2023/11/15 09:32:50;;;;;;;2.58;0.95;;;10.00;99.90;;;;;;6223400;23;20024;-82
2023/11/15 09:35:18;;;;;;;3.08;0.80;;;10.00;99.90;;;;;;6176177;23;20220;-80
2023/11/15 09:37:45;;;;;;;3.53;1.20;;;10.00;99.90;;;;;;6199786;23;20391;-80
2023/11/15 09:40:12;;;;;;;3.17;0.90;;;10.00;99.90;;;;;;6177506;23;20032;-81
2023/11/15 09:42:42;;;;;;;2.67;1.00;;;10.10;99.90;;;;;;6229853;23;20016;-81
2023/11/15 09:45:16;;;;;;;2.00;0.80;;;10.10;99.90;;;;;;6202821;23;20020;-81
2023/11/15 09:47:47;;;;;;;3.75;0.95;;;10.10;99.90;;;;;;6204161;23;20031;-80
2023/11/15 09:50:18;;;;;;;4.47;1.33;;;10.10;99.90;;;;;;6202052;23;20386;-81
2023/11/15 09:52:49;;;;;;;3.30;1.10;;;10.20;99.90;;;;;;6203833;23;20024;-81
2023/11/15 09:55:21;;;;;;;4.35;1.00;;;10.20;99.90;;;;;;6203346;23;20094;-81
2023/11/15 09:57:49;;;;;;;2.20;1.10;;;10.30;99.90;;;;;;6178967;23;20071;-81
2023/11/15 10:00:19;;;;;;;3.00;0.98;;;10.30;99.90;;;;;;6199718;23;20034;-81
2023/11/15 10:02:50;;;;;;;4.30;1.17;;;10.40;99.90;;;;;;6227522;23;20044;-81
2023/11/15 10:05:26;;;;;;;3.53;0.93;;;10.30;99.90;;;;;;6174651;23;20329;-81
2023/11/15 10:08:10;;;;;;;2.97;1.42;;;10.40;99.90;;;;;;6202735;23;20035;-80
2023/11/15 10:10:38;;;;;;;2.90;1.08;;;10.40;99.90;;;;;;6203360;23;20031;-81
2023/11/15 10:13:13;;;;;;;2.33;0.90;;;10.40;99.90;;;;;;6204373;23;20259;-81
2023/11/15 10:15:43;;;;;;;1.75;0.90;;;10.50;99.90;;;;;;6202840;23;20098;-81
2023/11/15 10:18:14;;;;;;;1.52;0.73;;;10.50;99.90;;;;;;6178647;23;20027;-81
2023/11/15 10:20:41;;;;;;;3.13;0.80;;;10.50;99.90;;;;;;6202623;23;20028;-81
2023/11/15 10:23:12;;;;;;;3.10;0.88;;;10.60;99.90;;;;;;6201512;23;20056;-81
2023/11/15 10:25:50;;;;;;;1.60;0.70;;;10.50;99.90;;;;;;6178536;23;20649;-81
2023/11/15 10:28:21;;;;;;;2.38;1.02;;;10.60;99.90;;;;;;6227727;23;20535;-80
2023/11/15 10:31:04;;;;;;;2.50;1.00;;;10.60;95.20;;;;;;6177314;23;20415;-80
2023/11/15 10:33:32;;;;;;;3.03;1.10;;;10.60;83.00;;;;;;6201869;23;20024;-80
2023/11/15 10:36:19;;;;;;;3.55;1.15;;;10.70;66.60;;;;;;6199892;23;20024;-80
2023/11/15 10:38:50;;;;;;;4.13;1.25;;;10.70;65.80;;;;;;6226417;23;20115;-80
2023/11/15 10:41:21;;;;;;;3.75;1.17;;;10.70;65.30;;;;;;6176342;23;20076;-80
2023/11/15 10:43:49;;;;;;;2.40;1.00;;;10.80;38.10;;;;;;6201068;23;20020;-81
2023/11/15 10:46:23;;;;;;;2.63;1.15;;;10.80;33.20;;;;;;6198908;23;20032;-81
2023/11/15 10:48:50;;;;;;;3.60;1.98;;;10.80;29.30;;;;;;6201385;23;20020;-81
2023/11/15 10:51:20;;;;;;;2.80;1.23;;;10.80;21.90;;;;;;6222329;23;20036;-81
2023/11/15 10:53:47;;;;;;;2.58;1.00;;;10.90;20.60;;;;;;6202069;23;20028;-81
2023/11/15 10:56:19;;;;;;;5.00;1.98;;;10.90;23.60;;;;;;6201962;23;20017;-81
2023/11/15 10:58:47;;;;;;;1.85;1.02;;;11.00;22.00;;;;;;6199421;23;20028;-81
2023/11/15 11:01:17;;;;;;;2.97;1.15;;;11.10;23.70;;;;;;6199754;23;20020;-80
2023/11/15 11:03:49;;;;;;;4.18;1.20;;;11.10;18.40;;;;;;6226941;23;20419;-80
2023/11/15 11:06:25;;;;;;;3.13;1.02;;;11.20;8.50;;;;;;6198570;23;20050;-81
2023/11/15 11:09:21;;;;;;;4.00;1.70;;;11.20;17.30;;;;;;6202462;23;20028;-80
2023/11/15 11:11:56;;;;;;;7.93;1.98;;;11.20;1.80;;;;;;6177467;23;20035;-81
2023/11/15 11:14:27;;;;;;;1.95;1.08;;;11.30;2.00;;;;;;6225236;23;20099;-81
2023/11/15 11:16:56;;;;;;;4.15;1.30;;;11.40;1.00;;;;;;6178254;23;20054;-81
2023/11/15 11:19:23;;;;;;;3.05;1.30;;;11.40;1.00;;;;;;6200413;23;20256;-81
2023/11/15 11:22:06;;;;;;;2.92;1.10;;;11.50;1.00;;;;;;6199394;23;20070;-81
2023/11/15 11:24:59;;;;;;;2.78;1.08;;;11.50;1.00;;;;;;6200789;23;20460;-81
2023/11/15 11:27:31;;;;;;;1.85;0.90;;;11.60;1.00;;;;;;6214743;23;20024;-81
2023/11/15 11:30:01;;;;;;;2.20;0.82;;;11.60;1.00;;;;;;6201694;23;20028;-81
2023/11/15 11:32:31;;;;;;;1.38;0.75;;;11.70;1.00;;;;;;6228434;23;20028;-81
2023/11/15 11:35:05;;;;;;;5.35;2.15;;;11.70;1.00;;;;;;6225349;23;20142;-81
2023/11/15 11:37:44;;;;;;;3.67;1.10;;;11.70;1.00;;;;;;6199332;23;20535;-81
2023/11/15 11:40:14;;;;;;;4.25;1.40;;;11.70;1.00;;;;;;6199269;23;20031;-81
2023/11/15 11:42:44;;;;;;;3.90;1.42;;;11.70;1.00;;;;;;6225729;23;20086;-80
2023/11/15 11:45:14;;;;;;;3.45;1.20;;;11.70;1.00;;;;;;6200484;23;20024;-80
2023/11/15 11:47:48;;;;;;;1.70;0.80;;;11.80;1.00;;;;;;6226022;23;20024;-81
2023/11/15 11:50:23;;;;;;;4.22;1.30;;;11.90;1.00;;;;;;6200598;23;20024;-80
2023/11/15 11:52:53;;;;;;;3.40;1.20;;;12.10;1.00;;;;;;6226886;23;20097;-80
2023/11/15 11:55:21;;;;;;;5.82;1.50;;;12.20;1.00;;;;;;6225295;23;20027;-80
2023/11/15 11:57:51;;;;;;;8.23;1.65;;;12.40;1.00;;;;;;6177952;23;20345;-80
2023/11/15 12:00:21;;;;;;;4.50;1.90;;;12.40;1.00;;;;;;6226204;23;20055;-81
2023/11/15 12:02:50;;;;;;;7.03;2.30;;;12.30;1.00;;;;;;6177190;23;20034;-80
2023/11/15 12:05:24;;;;;;;4.70;1.50;;;12.10;1.00;;;;;;6202906;23;20027;-80
2023/11/15 12:07:56;;;;;;;5.68;1.83;;;12.10;1.00;;;;;;6224911;23;20024;-81
2023/11/15 12:10:24;;;;;;;4.30;1.67;;;12.10;1.00;;;;;;6226098;23;20043;-80
2023/11/15 12:12:56;;;;;;;2.05;1.15;;;12.20;1.00;;;;;;6177136;23;20521;-80
2023/11/15 12:15:24;;;;;;;3.17;1.27;;;12.20;1.00;;;;;;6223688;23;20082;-80
2023/11/15 12:18:00;;;;;;;4.13;1.75;;;12.40;1.00;;;;;;6178041;23;20078;-77
2023/11/15 12:20:33;;;;;;;3.00;1.30;;;12.70;1.00;;;;;;6228199;23;20509;-76
2023/11/15 12:23:13;;;;;;;3.50;1.52;;;12.90;1.00;;;;;;6177588;23;20066;-77
2023/11/15 12:25:47;;;;;;;3.90;1.05;;;13.00;1.00;;;;;;6201442;23;20505;-76
2023/11/15 12:28:23;;;;;;;3.67;1.45;;;13.20;1.00;;;;;;6201952;23;20039;-77
2023/11/15 12:30:51;;;;;;;2.88;1.10;;;13.50;1.00;;;;;;6201256;23;20024;-76
2023/11/15 12:33:18;;;;;;;5.07;1.10;;;13.70;1.00;;;;;;6202675;23;20028;-77
2023/11/15 12:35:46;;;;;;;2.40;1.00;;;13.70;1.00;;;;;;6200982;23;20532;-79
2023/11/15 12:38:14;;;;;;;5.32;1.60;;;13.90;1.00;;;;;;6200643;23;20372;-78
2023/11/15 12:40:41;;;;;;;3.92;1.45;;;13.80;1.00;;;;;;6225966;23;20031;-78
2023/11/15 12:43:30;;;;;;;6.57;1.52;;;13.70;1.00;;;;;;6203903;23;20024;-78
2023/11/15 12:46:03;;;;;;;3.47;1.50;;;13.80;1.00;;;;;;6229688;23;20550;-78
2023/11/15 12:48:31;;;;;;;5.13;1.30;;;13.80;1.00;;;;;;6204750;23;20344;-78
2023/11/15 12:51:03;;;;;;;2.38;1.20;;;13.90;1.00;;;;;;6180051;23;20039;-77
2023/11/15 12:53:31;;;;;;;4.57;1.95;;;14.20;1.00;;;;;;6202940;23;20086;-78
2023/11/15 12:56:00;;;;;;;6.38;1.73;;;14.10;1.00;;;;;;6206770;23;20028;-77
2023/11/15 12:58:27;;;;;;;1.75;1.00;;;13.80;1.00;;;;;;6210081;23;20016;-76
2023/11/15 13:01:00;;;;;;;6.28;1.58;;;13.50;1.00;;;;;;6235794;23;20080;-80
2023/11/15 13:03:34;;;;;;;1.83;1.20;;;13.30;1.00;;;;;;6210860;23;20070;-81
2023/11/15 13:06:10;;;;;;;1.85;0.88;;;13.30;1.00;;;;;;6186060;23;20494;-81